sensor_id;sensor_type;location;lat;lon;timestamp;pressure;altitude;pressure_sealevel;temperature;humidity
16030;BME280;34770;49.272;11.070;2022-09-03T00:05:02;97461.31;;;12.05;82.50
16030;BME280;34770;49.272;11.070;2022-09-03T00:07:54;97510.72;;;12.27;82.99
16030;BME280;34770;49.272;11.070;2022-09-03T00:10:27;97510.59;;;12.20;83.91
16030;BME280;34770;49.272;11.070;2022-09-03T00:12:58;97521.75;;;12.20;84.01
16030;BME280;34770;49.272;11.070;2022-09-03T00:15:27;97510.97;;;12.19;84.31
16030;BME280;34770;49.272;11.070;2022-09-03T00:18:02;97513.97;;;12.06;85.01
16030;BME280;34770;49.272;11.070;2022-09-03T00:20:38;97511.22;;;12.10;84.96
16030;BME280;34770;49.272;11.070;2022-09-03T00:23:06;97507.69;;;12.13;85.22
16030;BME280;34770;49.272;11.070;2022-09-03T00:26:24;97498.88;;;12.11;84.25
16030;BME280;34770;49.272;11.070;2022-09-03T00:28:40;97517.59;;;12.10;84.09
16030;BME280;34770;49.272;11.070;2022-09-03T00:31:19;97514.75;;;12.07;84.29
16030;BME280;34770;49.272;11.070;2022-09-03T00:33:47;97509.91;;;12.04;84.79
16030;BME280;34770;49.272;11.070;2022-09-03T00:36:20;97507.88;;;12.01;84.98
16030;BME280;34770;49.272;11.070;2022-09-03T00:38:47;97506.66;;;11.78;85.31
16030;BME280;34770;49.272;11.070;2022-09-03T00:41:29;97514.44;;;11.69;86.45
16030;BME280;34770;49.272;11.070;2022-09-03T00:46:52;97516.00;;;11.67;87.68
16030;BME280;34770;49.272;11.070;2022-09-03T00:55:03;97496.59;;;11.51;87.51
16030;BME280;34770;49.272;11.070;2022-09-03T01:00:30;97513.22;;;11.67;87.83
16030;BME280;34770;49.272;11.070;2022-09-03T01:03:17;97515.47;;;11.61;88.82
16030;BME280;34770;49.272;11.070;2022-09-03T01:14:41;97526.41;;;11.50;89.83
16030;BME280;34770;49.272;11.070;2022-09-03T01:22:53;97520.72;;;11.23;90.96
16030;BME280;34770;49.272;11.070;2022-09-03T01:31:45;97516.09;;;11.11;89.94
16030;BME280;34770;49.272;11.070;2022-09-03T01:37:06;97501.91;;;10.81;90.10
16030;BME280;34770;49.272;11.070;2022-09-03T01:45:16;97533.88;;;10.87;89.78
16030;BME280;34770;49.272;11.070;2022-09-03T01:50:50;97535.94;;;10.90;90.28
16030;BME280;34770;49.272;11.070;2022-09-03T01:56:10;97536.72;;;10.91;90.58
16030;BME280;34770;49.272;11.070;2022-09-03T01:58:46;97537.44;;;10.52;90.37
16030;BME280;34770;49.272;11.070;2022-09-03T02:01:29;97531.28;;;10.43;90.82
16030;BME280;34770;49.272;11.070;2022-09-03T02:03:58;97526.50;;;10.43;92.39
16030;BME280;34770;49.272;11.070;2022-09-03T02:06:25;97532.16;;;10.47;92.46
16030;BME280;34770;49.272;11.070;2022-09-03T02:08:52;97456.91;;;10.08;92.29
16030;BME280;34770;49.272;11.070;2022-09-03T02:11:17;97519.66;;;10.57;91.82
16030;BME280;34770;49.272;11.070;2022-09-03T02:13:49;97530.16;;;10.47;91.75
16030;BME280;34770;49.272;11.070;2022-09-03T02:16:21;97527.94;;;10.53;92.28
16030;BME280;34770;49.272;11.070;2022-09-03T02:19:01;97538.97;;;10.49;92.27
16030;BME280;34770;49.272;11.070;2022-09-03T02:21:34;97538.88;;;10.46;91.93
16030;BME280;34770;49.272;11.070;2022-09-03T02:24:03;97537.19;;;10.41;91.67
16030;BME280;34770;49.272;11.070;2022-09-03T02:26:29;97536.97;;;10.34;91.55
16030;BME280;34770;49.272;11.070;2022-09-03T02:28:54;97498.06;;;10.02;92.98
16030;BME280;34770;49.272;11.070;2022-09-03T02:31:21;97527.38;;;10.15;92.39
16030;BME280;34770;49.272;11.070;2022-09-03T02:33:47;97535.19;;;10.10;93.03
16030;BME280;34770;49.272;11.070;2022-09-03T02:36:15;97533.22;;;10.10;93.79
16030;BME280;34770;49.272;11.070;2022-09-03T02:38:42;97534.03;;;10.11;93.52
16030;BME280;34770;49.272;11.070;2022-09-03T02:41:08;97531.78;;;10.16;93.08
16030;BME280;34770;49.272;11.070;2022-09-03T02:46:38;97488.81;;;9.82;92.70
16030;BME280;34770;49.272;11.070;2022-09-03T02:49:03;97513.91;;;9.85;93.55
16030;BME280;34770;49.272;11.070;2022-09-03T02:51:38;97509.78;;;9.95;94.20
16030;BME280;34770;49.272;11.070;2022-09-03T02:54:04;97522.63;;;10.00;94.66
16030;BME280;34770;49.272;11.070;2022-09-03T02:56:29;97510.06;;;9.90;93.79
16030;BME280;34770;49.272;11.070;2022-09-03T02:58:55;97514.19;;;9.80;94.73
16030;BME280;34770;49.272;11.070;2022-09-03T03:01:21;97499.53;;;9.67;95.13
16030;BME280;34770;49.272;11.070;2022-09-03T03:03:46;97517.53;;;9.86;94.88
16030;BME280;34770;49.272;11.070;2022-09-03T03:06:12;97513.28;;;9.76;94.79
16030;BME280;34770;49.272;11.070;2022-09-03T03:08:39;97520.31;;;9.86;94.67
16030;BME280;34770;49.272;11.070;2022-09-03T03:11:04;97519.66;;;9.77;94.81
16030;BME280;34770;49.272;11.070;2022-09-03T03:13:31;97520.41;;;9.45;95.32
16030;BME280;34770;49.272;11.070;2022-09-03T03:15:58;97521.22;;;9.46;96.27
16030;BME280;34770;49.272;11.070;2022-09-03T03:18:24;97509.47;;;9.52;96.87
16030;BME280;34770;49.272;11.070;2022-09-03T03:20:49;97500.09;;;9.57;96.07
16030;BME280;34770;49.272;11.070;2022-09-03T03:23:15;97514.81;;;9.73;95.36
16030;BME280;34770;49.272;11.070;2022-09-03T03:25:40;97489.16;;;9.64;95.02
16030;BME280;34770;49.272;11.070;2022-09-03T03:28:07;97494.72;;;9.64;95.71
16030;BME280;34770;49.272;11.070;2022-09-03T03:30:35;97516.03;;;9.60;94.96
16030;BME280;34770;49.272;11.070;2022-09-03T03:33:01;97497.75;;;9.59;96.33
16030;BME280;34770;49.272;11.070;2022-09-03T03:35:26;97508.63;;;9.64;96.77
16030;BME280;34770;49.272;11.070;2022-09-03T03:37:52;97475.16;;;9.45;96.18
16030;BME280;34770;49.272;11.070;2022-09-03T03:40:17;97504.25;;;9.35;95.15
16030;BME280;34770;49.272;11.070;2022-09-03T03:42:44;97493.34;;;9.14;96.46
16030;BME280;34770;49.272;11.070;2022-09-03T03:45:10;97504.53;;;9.17;97.27
16030;BME280;34770;49.272;11.070;2022-09-03T03:47:36;97507.72;;;9.03;97.28
16030;BME280;34770;49.272;11.070;2022-09-03T03:50:02;97496.84;;;9.10;98.75
16030;BME280;34770;49.272;11.070;2022-09-03T03:52:28;97492.66;;;9.17;98.16
16030;BME280;34770;49.272;11.070;2022-09-03T03:54:53;97489.72;;;9.25;97.75
16030;BME280;34770;49.272;11.070;2022-09-03T03:57:20;97464.38;;;8.99;96.79
16030;BME280;34770;49.272;11.070;2022-09-03T03:59:48;97500.66;;;9.34;97.30
16030;BME280;34770;49.272;11.070;2022-09-03T04:02:15;97493.03;;;9.31;98.02
16030;BME280;34770;49.272;11.070;2022-09-03T04:04:41;97514.22;;;9.23;99.42
16030;BME280;34770;49.272;11.070;2022-09-03T04:07:07;97513.69;;;9.46;99.19
16030;BME280;34770;49.272;11.070;2022-09-03T04:09:32;97508.69;;;9.52;98.96
16030;BME280;34770;49.272;11.070;2022-09-03T04:11:58;97485.06;;;9.01;100.00
16030;BME280;34770;49.272;11.070;2022-09-03T04:14:24;97514.63;;;9.38;100.00
16030;BME280;34770;49.272;11.070;2022-09-03T04:16:51;97474.69;;;9.42;100.00
16030;BME280;34770;49.272;11.070;2022-09-03T04:19:17;97508.53;;;9.77;100.00
16030;BME280;34770;49.272;11.070;2022-09-03T04:21:43;97506.84;;;9.88;100.00
16030;BME280;34770;49.272;11.070;2022-09-03T04:24:09;97508.13;;;9.90;100.00
16030;BME280;34770;49.272;11.070;2022-09-03T04:26:35;97515.53;;;10.02;100.00
16030;BME280;34770;49.272;11.070;2022-09-03T04:29:06;97504.97;;;10.08;99.98
16030;BME280;34770;49.272;11.070;2022-09-03T04:31:33;97503.88;;;10.13;99.12
16030;BME280;34770;49.272;11.070;2022-09-03T04:33:59;97492.69;;;9.93;97.92
16030;BME280;34770;49.272;11.070;2022-09-03T04:36:26;97507.56;;;10.01;98.52
16030;BME280;34770;49.272;11.070;2022-09-03T04:38:53;97502.56;;;10.06;99.00
16030;BME280;34770;49.272;11.070;2022-09-03T04:41:25;97514.75;;;10.02;98.93
16030;BME280;34770;49.272;11.070;2022-09-03T04:43:52;97507.56;;;10.01;97.63
16030;BME280;34770;49.272;11.070;2022-09-03T04:46:19;97536.97;;;10.18;96.74
16030;BME280;34770;49.272;11.070;2022-09-03T04:48:50;97533.50;;;10.21;97.24
16030;BME280;34770;49.272;11.070;2022-09-03T04:51:19;97529.09;;;10.20;96.95
16030;BME280;34770;49.272;11.070;2022-09-03T04:53:46;97535.72;;;10.15;96.37
16030;BME280;34770;49.272;11.070;2022-09-03T04:56:19;97504.88;;;9.88;96.16
16030;BME280;34770;49.272;11.070;2022-09-03T04:58:47;97540.84;;;10.13;96.72
16030;BME280;34770;49.272;11.070;2022-09-03T05:01:18;97537.72;;;10.15;97.28
16030;BME280;34770;49.272;11.070;2022-09-03T05:03:44;97535.72;;;10.15;97.92
16030;BME280;34770;49.272;11.070;2022-09-03T05:06:10;97530.63;;;10.17;97.22
16030;BME280;34770;49.272;11.070;2022-09-03T05:08:36;97541.94;;;10.25;96.75
16030;BME280;34770;49.272;11.070;2022-09-03T05:11:04;97537.16;;;10.25;96.57
16030;BME280;34770;49.272;11.070;2022-09-03T05:13:30;97543.28;;;10.31;96.61
16030;BME280;34770;49.272;11.070;2022-09-03T05:16:06;97549.81;;;10.22;95.96
16030;BME280;34770;49.272;11.070;2022-09-03T05:18:33;97528.81;;;10.25;96.34
16030;BME280;34770;49.272;11.070;2022-09-03T05:21:04;97542.28;;;10.23;97.26
16030;BME280;34770;49.272;11.070;2022-09-03T05:23:30;97547.03;;;10.22;96.76
16030;BME280;34770;49.272;11.070;2022-09-03T05:26:01;97533.75;;;10.32;96.80
16030;BME280;34770;49.272;11.070;2022-09-03T05:28:29;97542.66;;;10.37;96.74
16030;BME280;34770;49.272;11.070;2022-09-03T05:30:59;97534.56;;;10.48;98.30
16030;BME280;34770;49.272;11.070;2022-09-03T05:33:24;97548.31;;;10.57;96.95
16030;BME280;34770;49.272;11.070;2022-09-03T05:35:50;97543.56;;;10.42;97.04
16030;BME280;34770;49.272;11.070;2022-09-03T05:38:17;97538.06;;;10.61;97.55
16030;BME280;34770;49.272;11.070;2022-09-03T05:40:43;97532.78;;;10.92;95.96
16030;BME280;34770;49.272;11.070;2022-09-03T05:43:08;97525.81;;;11.01;95.09
16030;BME280;34770;49.272;11.070;2022-09-03T05:45:34;97533.47;;;11.24;93.04
16030;BME280;34770;49.272;11.070;2022-09-03T05:47:59;97540.66;;;11.45;91.43
16030;BME280;34770;49.272;11.070;2022-09-03T05:50:25;97532.81;;;11.51;90.99
16030;BME280;34770;49.272;11.070;2022-09-03T05:52:51;97525.25;;;11.51;91.58
16030;BME280;34770;49.272;11.070;2022-09-03T05:55:17;97534.28;;;11.64;91.44
16030;BME280;34770;49.272;11.070;2022-09-03T05:57:42;97528.59;;;11.80;90.90
16030;BME280;34770;49.272;11.070;2022-09-03T06:00:09;97554.13;;;12.02;89.55
16030;BME280;34770;49.272;11.070;2022-09-03T06:02:34;97552.19;;;12.06;89.73
16030;BME280;34770;49.272;11.070;2022-09-03T06:05:00;97541.22;;;12.17;88.82
16030;BME280;34770;49.272;11.070;2022-09-03T06:07:25;97548.03;;;12.19;88.88
16030;BME280;34770;49.272;11.070;2022-09-03T06:09:51;97547.09;;;12.35;89.50
16030;BME280;34770;49.272;11.070;2022-09-03T06:12:16;97542.75;;;12.37;89.44
16030;BME280;34770;49.272;11.070;2022-09-03T06:14:42;97535.28;;;12.45;90.37
16030;BME280;34770;49.272;11.070;2022-09-03T06:17:07;97541.75;;;12.49;91.60
16030;BME280;34770;49.272;11.070;2022-09-03T06:19:35;97541.38;;;12.51;92.23
16030;BME280;34770;49.272;11.070;2022-09-03T06:22:00;97538.91;;;12.45;91.72
16030;BME280;34770;49.272;11.070;2022-09-03T06:24:26;97543.06;;;12.55;90.52
16030;BME280;34770;49.272;11.070;2022-09-03T06:26:54;97540.22;;;12.79;89.17
16030;BME280;34770;49.272;11.070;2022-09-03T06:29:20;97547.81;;;13.08;87.94
16030;BME280;34770;49.272;11.070;2022-09-03T06:31:46;97546.00;;;12.93;87.33
16030;BME280;34770;49.272;11.070;2022-09-03T06:34:13;97537.34;;;13.32;85.53
16030;BME280;34770;49.272;11.070;2022-09-03T06:36:38;97541.16;;;13.47;82.70
16030;BME280;34770;49.272;11.070;2022-09-03T06:39:05;97547.16;;;13.49;83.14
16030;BME280;34770;49.272;11.070;2022-09-03T06:41:31;97542.19;;;13.35;84.13
16030;BME280;34770;49.272;11.070;2022-09-03T06:44:05;97545.47;;;13.75;82.31
16030;BME280;34770;49.272;11.070;2022-09-03T06:46:33;97545.28;;;13.95;80.36
16030;BME280;34770;49.272;11.070;2022-09-03T06:48:59;97530.44;;;14.32;79.65
16030;BME280;34770;49.272;11.070;2022-09-03T06:51:26;97530.00;;;14.26;79.71
16030;BME280;34770;49.272;11.070;2022-09-03T06:53:54;97529.03;;;14.56;78.53
16030;BME280;34770;49.272;11.070;2022-09-03T06:56:24;97533.47;;;14.61;77.78
16030;BME280;34770;49.272;11.070;2022-09-03T06:58:54;97536.84;;;14.81;77.10
16030;BME280;34770;49.272;11.070;2022-09-03T07:01:25;97529.00;;;15.08;76.75
16030;BME280;34770;49.272;11.070;2022-09-03T07:03:55;97517.94;;;15.44;74.06
16030;BME280;34770;49.272;11.070;2022-09-03T07:06:23;97520.06;;;15.69;73.85
16030;BME280;34770;49.272;11.070;2022-09-03T07:08:49;97499.63;;;15.76;73.00
16030;BME280;34770;49.272;11.070;2022-09-03T07:11:17;97518.97;;;16.17;72.34
16030;BME280;34770;49.272;11.070;2022-09-03T07:13:46;97524.16;;;16.01;71.54
16030;BME280;34770;49.272;11.070;2022-09-03T07:16:14;97519.34;;;16.08;71.12
16030;BME280;34770;49.272;11.070;2022-09-03T07:18:40;97532.59;;;16.04;72.18
16030;BME280;34770;49.272;11.070;2022-09-03T07:21:10;97535.81;;;16.21;71.38
16030;BME280;34770;49.272;11.070;2022-09-03T07:23:37;97536.59;;;16.10;71.58
16030;BME280;34770;49.272;11.070;2022-09-03T07:26:08;97534.63;;;16.29;72.01
16030;BME280;34770;49.272;11.070;2022-09-03T07:28:35;97546.25;;;16.13;71.74
16030;BME280;34770;49.272;11.070;2022-09-03T07:31:07;97550.22;;;16.08;72.23
16030;BME280;34770;49.272;11.070;2022-09-03T07:33:33;97533.00;;;16.10;71.63
16030;BME280;34770;49.272;11.070;2022-09-03T07:36:04;97541.44;;;16.35;70.91
16030;BME280;34770;49.272;11.070;2022-09-03T07:38:33;97534.63;;;16.51;69.90
16030;BME280;34770;49.272;11.070;2022-09-03T07:41:00;97531.81;;;16.72;69.43
16030;BME280;34770;49.272;11.070;2022-09-03T07:43:27;97548.66;;;16.87;67.90
16030;BME280;34770;49.272;11.070;2022-09-03T07:45:53;97536.63;;;16.83;66.93
16030;BME280;34770;49.272;11.070;2022-09-03T07:48:20;97531.78;;;17.05;66.70
16030;BME280;34770;49.272;11.070;2022-09-03T07:50:45;97535.81;;;17.00;66.69
16030;BME280;34770;49.272;11.070;2022-09-03T07:53:12;97532.59;;;16.95;66.49
16030;BME280;34770;49.272;11.070;2022-09-03T07:55:37;97522.53;;;17.12;66.98
16030;BME280;34770;49.272;11.070;2022-09-03T07:58:03;97516.50;;;17.17;65.92
16030;BME280;34770;49.272;11.070;2022-09-03T08:00:28;97520.81;;;17.47;65.26
16030;BME280;34770;49.272;11.070;2022-09-03T08:02:53;97519.13;;;17.60;64.92
16030;BME280;34770;49.272;11.070;2022-09-03T08:05:20;97519.53;;;17.62;63.96
16030;BME280;34770;49.272;11.070;2022-09-03T08:07:46;97524.31;;;17.73;63.61
16030;BME280;34770;49.272;11.070;2022-09-03T08:10:13;97535.88;;;17.93;63.69
16030;BME280;34770;49.272;11.070;2022-09-03T08:12:39;97519.91;;;17.72;64.76
16030;BME280;34770;49.272;11.070;2022-09-03T08:15:05;97519.53;;;17.66;64.46
16030;BME280;34770;49.272;11.070;2022-09-03T08:17:30;97529.09;;;17.83;63.78
16030;BME280;34770;49.272;11.070;2022-09-03T08:19:56;97535.88;;;17.96;63.87
16030;BME280;34770;49.272;11.070;2022-09-03T08:22:23;97526.91;;;18.12;63.90
16030;BME280;34770;49.272;11.070;2022-09-03T08:24:49;97540.94;;;18.20;62.39
16030;BME280;34770;49.272;11.070;2022-09-03T08:27:15;97520.94;;;18.07;63.06
16030;BME280;34770;49.272;11.070;2022-09-03T08:29:40;97534.00;;;18.35;62.65
16030;BME280;34770;49.272;11.070;2022-09-03T08:32:06;97527.06;;;18.50;62.59
16030;BME280;34770;49.272;11.070;2022-09-03T08:34:31;97529.84;;;18.54;61.38
16030;BME280;34770;49.272;11.070;2022-09-03T08:36:56;97530.44;;;18.76;61.74
16030;BME280;34770;49.272;11.070;2022-09-03T08:39:23;97485.44;;;18.65;60.06
16030;BME280;34770;49.272;11.070;2022-09-03T08:49:53;97510.88;;;20.04;57.00
16030;BME280;34770;49.272;11.070;2022-09-03T08:52:43;97513.50;;;19.56;57.71
16030;BME280;34770;49.272;11.070;2022-09-03T08:55:15;97514.78;;;19.83;57.58
16030;BME280;34770;49.272;11.070;2022-09-03T08:57:48;97521.72;;;19.74;57.87
16030;BME280;34770;49.272;11.070;2022-09-03T09:00:14;97504.09;;;19.67;57.89
16030;BME280;34770;49.272;11.070;2022-09-03T09:03:01;97516.81;;;19.82;57.65
16030;BME280;34770;49.272;11.070;2022-09-03T09:05:48;97512.38;;;19.85;57.75
16030;BME280;34770;49.272;11.070;2022-09-03T09:08:27;97509.38;;;19.96;56.56
16030;BME280;34770;49.272;11.070;2022-09-03T09:22:04;97502.84;;;19.71;59.44
16030;BME280;34770;49.272;11.070;2022-09-03T09:24:41;97494.13;;;20.44;60.01
16030;BME280;34770;49.272;11.070;2022-09-03T09:27:12;97466.81;;;20.81;55.71
16030;BME280;34770;49.272;11.070;2022-09-03T09:29:42;97480.41;;;20.90;55.39
16030;BME280;34770;49.272;11.070;2022-09-03T09:32:09;97486.63;;;21.45;54.72
16030;BME280;34770;49.272;11.070;2022-09-03T09:34:37;97483.44;;;21.63;56.58
16030;BME280;34770;49.272;11.070;2022-09-03T09:37:10;97482.84;;;21.72;53.94
16030;BME280;34770;49.272;11.070;2022-09-03T09:39:37;97479.00;;;21.62;55.06
16030;BME280;34770;49.272;11.070;2022-09-03T09:42:08;97474.25;;;21.76;54.82
16030;BME280;34770;49.272;11.070;2022-09-03T09:44:41;97481.41;;;22.17;53.53
16030;BME280;34770;49.272;11.070;2022-09-03T09:47:07;97483.34;;;21.87;53.96
16030;BME280;34770;49.272;11.070;2022-09-03T09:49:48;97481.59;;;21.73;54.97
16030;BME280;34770;49.272;11.070;2022-09-03T09:52:15;97471.97;;;22.24;54.00
16030;BME280;34770;49.272;11.070;2022-09-03T09:54:43;97476.97;;;22.16;54.10
16030;BME280;34770;49.272;11.070;2022-09-03T09:57:20;97475.84;;;22.79;53.89
16030;BME280;34770;49.272;11.070;2022-09-03T09:59:46;97467.19;;;22.70;52.82
16030;BME280;34770;49.272;11.070;2022-09-03T10:02:24;97471.13;;;22.89;52.41
16030;BME280;34770;49.272;11.070;2022-09-03T10:05:00;97472.13;;;22.83;52.58
16030;BME280;34770;49.272;11.070;2022-09-03T10:07:35;97464.88;;;22.49;54.12
16030;BME280;34770;49.272;11.070;2022-09-03T10:12:39;97477.06;;;22.12;55.62
16030;BME280;34770;49.272;11.070;2022-09-03T10:23:08;97479.22;;;22.25;54.91
16030;BME280;34770;49.272;11.070;2022-09-03T10:26:00;97476.41;;;22.58;54.75
16030;BME280;34770;49.272;11.070;2022-09-03T10:28:33;97478.97;;;22.52;54.21
16030;BME280;34770;49.272;11.070;2022-09-03T10:39:24;97464.50;;;21.97;57.02
16030;BME280;34770;49.272;11.070;2022-09-03T10:47:48;97467.00;;;22.28;55.08
16030;BME280;34770;49.272;11.070;2022-09-03T10:50:22;97455.28;;;22.26;55.46
16030;BME280;34770;49.272;11.070;2022-09-03T10:53:10;97463.69;;;22.29;55.20
16030;BME280;34770;49.272;11.070;2022-09-03T11:01:26;97460.78;;;22.33;54.79
16030;BME280;34770;49.272;11.070;2022-09-03T11:06:45;97462.16;;;22.91;53.65
16030;BME280;34770;49.272;11.070;2022-09-03T11:12:12;97453.81;;;22.54;54.95
16030;BME280;34770;49.272;11.070;2022-09-03T11:14:48;97455.44;;;22.85;54.93
16030;BME280;34770;49.272;11.070;2022-09-03T11:17:29;97457.28;;;22.45;55.59
16030;BME280;34770;49.272;11.070;2022-09-03T11:22:38;97451.41;;;22.36;57.54
16030;BME280;34770;49.272;11.070;2022-09-03T11:25:06;97445.41;;;22.51;56.02
16030;BME280;34770;49.272;11.070;2022-09-03T11:30:21;97443.44;;;22.64;56.01
16030;BME280;34770;49.272;11.070;2022-09-03T11:32:55;97441.16;;;22.88;55.35
16030;BME280;34770;49.272;11.070;2022-09-03T11:35:39;97442.22;;;22.94;54.90
16030;BME280;34770;49.272;11.070;2022-09-03T11:38:29;97445.38;;;23.55;53.59
16030;BME280;34770;49.272;11.070;2022-09-03T11:41:13;97442.66;;;24.68;52.02
16030;BME280;34770;49.272;11.070;2022-09-03T11:43:40;97437.63;;;25.29;49.90
16030;BME280;34770;49.272;11.070;2022-09-03T11:46:26;97424.06;;;25.56;48.86
16030;BME280;34770;49.272;11.070;2022-09-03T11:48:54;97425.06;;;25.62;48.69
16030;BME280;34770;49.272;11.070;2022-09-03T11:53:56;97432.50;;;24.80;50.61
16030;BME280;34770;49.272;11.070;2022-09-03T11:56:22;97433.28;;;24.19;52.32
16030;BME280;34770;49.272;11.070;2022-09-03T12:01:46;97425.84;;;24.48;53.44
16030;BME280;34770;49.272;11.070;2022-09-03T12:04:15;97426.50;;;24.52;52.48
16030;BME280;34770;49.272;11.070;2022-09-03T12:07:26;97416.91;;;24.59;53.24
16030;BME280;34770;49.272;11.070;2022-09-03T12:12:54;97412.41;;;24.96;52.42
16030;BME280;34770;49.272;11.070;2022-09-03T12:18:03;97397.72;;;24.50;53.92
16030;BME280;34770;49.272;11.070;2022-09-03T12:20:43;97386.81;;;24.48;54.46
16030;BME280;34770;49.272;11.070;2022-09-03T12:23:24;97394.94;;;24.37;54.52
16030;BME280;34770;49.272;11.070;2022-09-03T12:25:51;97378.03;;;24.68;53.06
16030;BME280;34770;49.272;11.070;2022-09-03T12:28:21;97394.59;;;24.83;53.38
16030;BME280;34770;49.272;11.070;2022-09-03T12:30:48;97400.00;;;24.90;53.05
16030;BME280;34770;49.272;11.070;2022-09-03T12:33:18;97394.94;;;23.85;55.50
16030;BME280;34770;49.272;11.070;2022-09-03T12:35:54;97386.41;;;23.47;56.64
16030;BME280;34770;49.272;11.070;2022-09-03T12:38:25;97398.94;;;23.88;56.47
16030;BME280;34770;49.272;11.070;2022-09-03T12:40:51;97406.34;;;23.98;55.35
16030;BME280;34770;49.272;11.070;2022-09-03T12:43:17;97403.41;;;24.02;56.08
16030;BME280;34770;49.272;11.070;2022-09-03T12:45:48;97402.81;;;24.07;55.55
16030;BME280;34770;49.272;11.070;2022-09-03T12:48:17;97405.88;;;24.00;56.08
16030;BME280;34770;49.272;11.070;2022-09-03T12:50:46;97399.16;;;24.19;55.25
16030;BME280;34770;49.272;11.070;2022-09-03T12:53:23;97405.97;;;24.35;56.26
16030;BME280;34770;49.272;11.070;2022-09-03T13:00:58;97412.22;;;23.65;59.38
16030;BME280;34770;49.272;11.070;2022-09-03T13:03:31;97401.66;;;23.66;59.81
16030;BME280;34770;49.272;11.070;2022-09-03T13:06:07;97393.34;;;23.46;59.40
16030;BME280;34770;49.272;11.070;2022-09-03T13:08:46;97412.03;;;23.30;60.40
16030;BME280;34770;49.272;11.070;2022-09-03T13:11:16;97394.44;;;22.93;60.64
16030;BME280;34770;49.272;11.070;2022-09-03T13:13:53;97414.13;;;22.84;61.20
16030;BME280;34770;49.272;11.070;2022-09-03T13:16:29;97411.97;;;22.58;62.94
16030;BME280;34770;49.272;11.070;2022-09-03T13:30:14;97428.09;;;22.12;66.06
16030;BME280;34770;49.272;11.070;2022-09-03T13:32:50;97429.94;;;21.86;65.77
16030;BME280;34770;49.272;11.070;2022-09-03T13:35:37;97431.56;;;22.03;65.74
16030;BME280;34770;49.272;11.070;2022-09-03T13:40:50;97426.22;;;21.89;67.52
16030;BME280;34770;49.272;11.070;2022-09-03T13:45:59;97426.44;;;22.47;65.73
16030;BME280;34770;49.272;11.070;2022-09-03T13:48:29;97419.44;;;22.52;65.88
16030;BME280;34770;49.272;11.070;2022-09-03T13:51:22;97412.22;;;22.81;65.07
16030;BME280;34770;49.272;11.070;2022-09-03T13:56:49;97412.44;;;22.57;65.01
16030;BME280;34770;49.272;11.070;2022-09-03T13:59:26;97413.88;;;22.78;65.08
16030;BME280;34770;49.272;11.070;2022-09-03T14:02:06;97412.84;;;23.01;63.78
16030;BME280;34770;49.272;11.070;2022-09-03T14:04:57;97412.44;;;22.86;63.09
16030;BME280;34770;49.272;11.070;2022-09-03T14:13:41;97399.66;;;22.94;63.39
16030;BME280;34770;49.272;11.070;2022-09-03T14:16:09;97404.22;;;22.75;63.83
16030;BME280;34770;49.272;11.070;2022-09-03T14:21:12;97423.03;;;22.69;63.83
16030;BME280;34770;49.272;11.070;2022-09-03T14:24:14;97431.38;;;22.27;66.31
16030;BME280;34770;49.272;11.070;2022-09-03T14:26:53;97438.03;;;22.20;66.14
16030;BME280;34770;49.272;11.070;2022-09-03T14:29:24;97438.09;;;22.00;67.59
16030;BME280;34770;49.272;11.070;2022-09-03T14:40:29;97433.31;;;21.80;67.98
16030;BME280;34770;49.272;11.070;2022-09-03T14:46:13;97420.00;;;21.77;68.71
16030;BME280;34770;49.272;11.070;2022-09-03T14:49:10;97421.22;;;21.60;69.18
16030;BME280;34770;49.272;11.070;2022-09-03T14:58:08;97410.56;;;21.47;69.28
16030;BME280;34770;49.272;11.070;2022-09-03T15:06:01;97411.41;;;21.44;69.72
16030;BME280;34770;49.272;11.070;2022-09-03T15:11:19;97405.31;;;21.46;69.83
16030;BME280;34770;49.272;11.070;2022-09-03T15:14:01;97392.13;;;21.39;69.73
16030;BME280;34770;49.272;11.070;2022-09-03T15:17:04;97375.66;;;21.34;69.85
16030;BME280;34770;49.272;11.070;2022-09-03T15:22:56;97354.41;;;21.26;69.66
16030;BME280;34770;49.272;11.070;2022-09-03T15:29:02;97375.94;;;21.40;70.20
16030;BME280;34770;49.272;11.070;2022-09-03T15:37:16;97385.91;;;21.08;74.76
16030;BME280;34770;49.272;11.070;2022-09-03T15:50:15;97402.13;;;19.34;94.65
16030;BME280;34770;49.272;11.070;2022-09-03T15:52:55;97425.56;;;19.31;100.00
16030;BME280;34770;49.272;11.070;2022-09-03T15:55:25;97430.84;;;19.25;100.00
16030;BME280;34770;49.272;11.070;2022-09-03T16:03:48;97450.59;;;18.90;100.00
16030;BME280;34770;49.272;11.070;2022-09-03T16:12:44;97457.09;;;18.84;100.00
16030;BME280;34770;49.272;11.070;2022-09-03T16:15:25;97464.94;;;18.65;100.00
16030;BME280;34770;49.272;11.070;2022-09-03T16:23:45;97474.03;;;18.38;100.00
16030;BME280;34770;49.272;11.070;2022-09-03T16:26:29;97480.47;;;18.35;100.00
16030;BME280;34770;49.272;11.070;2022-09-03T16:29:27;97462.81;;;18.31;100.00
16030;BME280;34770;49.272;11.070;2022-09-03T16:32:19;97487.31;;;18.38;100.00
16030;BME280;34770;49.272;11.070;2022-09-03T17:08:58;97444.75;;;17.65;100.00
16030;BME280;34770;49.272;11.070;2022-09-03T17:18:01;97401.69;;;16.97;100.00
16030;BME280;34770;49.272;11.070;2022-09-03T17:20:51;97463.44;;;17.26;100.00
16030;BME280;34770;49.272;11.070;2022-09-03T17:28:57;97487.31;;;17.74;100.00
16030;BME280;34770;49.272;11.070;2022-09-03T17:34:59;97496.94;;;17.77;100.00
16030;BME280;34770;49.272;11.070;2022-09-03T17:37:33;97500.94;;;17.83;100.00
16030;BME280;34770;49.272;11.070;2022-09-03T17:45:46;97504.25;;;17.67;100.00
16030;BME280;34770;49.272;11.070;2022-09-03T17:51:04;97455.00;;;17.26;100.00
16030;BME280;34770;49.272;11.070;2022-09-03T17:53:39;97416.97;;;17.00;100.00